Time;durP1;ratioP1;P1;durP2;ratioP2;P2;SDS_P1;SDS_P2;PMS_P1;PMS_P2;Temp;Humidity;BMP_temperature;BMP_pressure;BME280_temperature;BME280_humidity;BME280_pressure;Samples;Min_cycle;Max_cycle;Signal;HPM_P1;HPM_P2
2022/11/22 00:00:25;;;;;;;12.25;2.65;;;13.30;93.90;;;;;;5073743;28;20123;-71
2022/11/22 00:02:50;;;;;;;11.80;2.53;;;13.30;93.90;;;;;;5073799;28;20488;-73
2022/11/22 00:05:17;;;;;;;10.85;2.63;;;13.30;93.90;;;;;;5073721;28;20028;-71
2022/11/22 00:07:42;;;;;;;9.57;2.80;;;13.30;93.70;;;;;;5073814;28;20032;-72
2022/11/22 00:10:10;;;;;;;11.27;2.92;;;13.40;93.60;;;;;;5073455;28;20025;-72
2022/11/22 00:12:36;;;;;;;15.07;3.03;;;13.30;93.70;;;;;;5073642;28;20048;-73
2022/11/22 00:15:03;;;;;;;13.07;3.20;;;13.20;93.70;;;;;;5073844;28;20107;-73
2022/11/22 00:17:30;;;;;;;12.98;3.28;;;13.10;93.90;;;;;;5073815;28;20024;-74
2022/11/22 00:19:55;;;;;;;15.63;3.45;;;13.10;93.80;;;;;;5073409;28;20033;-71
2022/11/22 00:22:21;;;;;;;17.00;3.30;;;13.10;93.70;;;;;;5073481;28;20028;-73
2022/11/22 00:24:47;;;;;;;11.23;2.88;;;13.10;93.80;;;;;;5072981;28;20017;-74
2022/11/22 00:27:13;;;;;;;14.63;3.30;;;13.10;93.70;;;;;;5073361;28;20027;-71
2022/11/22 00:29:38;;;;;;;14.85;3.42;;;13.10;93.60;;;;;;5073085;28;20024;-72
2022/11/22 00:32:04;;;;;;;13.77;2.83;;;13.10;93.70;;;;;;5073324;28;20029;-71
2022/11/22 00:34:29;;;;;;;10.38;2.83;;;13.10;93.50;;;;;;5073150;28;20101;-72
2022/11/22 00:36:55;;;;;;;19.98;3.10;;;13.00;93.70;;;;;;5073403;28;20032;-71
2022/11/22 00:39:20;;;;;;;12.40;2.75;;;13.10;93.60;;;;;;5072549;28;20028;-71
2022/11/22 00:41:46;;;;;;;10.02;2.60;;;13.00;93.50;;;;;;5073063;28;20054;-71
2022/11/22 00:44:11;;;;;;;13.73;3.08;;;13.20;93.30;;;;;;5073022;28;20031;-72
2022/11/22 00:46:37;;;;;;;10.40;2.40;;;13.20;93.30;;;;;;5073115;28;20032;-74
2022/11/22 00:49:02;;;;;;;12.23;2.55;;;13.20;93.20;;;;;;5073049;28;20091;-71
2022/11/22 00:51:28;;;;;;;20.60;3.30;;;13.20;93.20;;;;;;5072881;28;20104;-74
2022/11/22 00:53:53;;;;;;;11.05;2.47;;;13.10;93.00;;;;;;5072744;28;20025;-73
2022/11/22 00:56:19;;;;;;;12.93;3.03;;;13.20;93.00;;;;;;5073061;28;20028;-74
2022/11/22 00:58:45;;;;;;;11.90;3.30;;;13.20;92.80;;;;;;5072969;28;20016;-71
2022/11/22 01:01:10;;;;;;;16.02;3.15;;;13.20;92.90;;;;;;5072869;28;20497;-74
2022/11/22 01:03:36;;;;;;;12.73;3.08;;;13.00;92.90;;;;;;5071614;28;20478;-74
2022/11/22 01:06:01;;;;;;;15.88;3.47;;;13.00;92.90;;;;;;5072794;28;20063;-73
2022/11/22 01:08:27;;;;;;;8.80;2.20;;;13.00;93.10;;;;;;5071449;28;20458;-72
2022/11/22 01:10:59;;;;;;;11.55;2.65;;;13.00;92.80;;;;;;5072529;28;20032;-74
2022/11/22 01:13:27;;;;;;;9.65;2.50;;;13.10;92.90;;;;;;5072930;28;20020;-72
2022/11/22 01:16:01;;;;;;;11.95;2.47;;;13.10;92.70;;;;;;5072832;28;20044;-74
2022/11/22 01:18:26;;;;;;;13.82;2.83;;;13.10;92.60;;;;;;5072813;28;20505;-74
2022/11/22 01:20:52;;;;;;;10.13;2.33;;;12.90;92.60;;;;;;5072548;28;20063;-73
2022/11/22 01:23:17;;;;;;;12.20;2.72;;;13.00;92.60;;;;;;5072385;28;20066;-74
2022/11/22 01:25:43;;;;;;;14.55;2.95;;;12.90;92.60;;;;;;5072528;28;20028;-74
2022/11/22 01:28:09;;;;;;;12.38;2.60;;;12.90;92.70;;;;;;5072836;28;20024;-74
2022/11/22 01:30:35;;;;;;;12.88;2.88;;;13.00;92.50;;;;;;5072408;28;20036;-73
2022/11/22 01:33:00;;;;;;;10.93;2.90;;;12.90;92.50;;;;;;5072708;28;20103;-73
2022/11/22 01:35:26;;;;;;;13.13;2.20;;;12.80;92.50;;;;;;5072608;28;20554;-74
2022/11/22 01:37:51;;;;;;;11.82;3.05;;;12.80;92.60;;;;;;5072319;28;20470;-74
2022/11/22 01:40:17;;;;;;;14.68;2.78;;;12.90;92.40;;;;;;5070959;28;20523;-73
2022/11/22 01:42:54;;;;;;;13.73;2.40;;;12.90;92.40;;;;;;5072519;28;20030;-74
2022/11/22 01:45:29;;;;;;;11.45;2.58;;;12.80;92.30;;;;;;5072647;28;20031;-74
2022/11/22 01:48:04;;;;;;;13.55;2.67;;;12.80;92.30;;;;;;5072387;28;20090;-73
2022/11/22 01:50:34;;;;;;;15.95;2.58;;;12.80;92.30;;;;;;5072402;28;20070;-73
2022/11/22 01:53:05;;;;;;;11.55;2.72;;;12.80;92.20;;;;;;5072308;28;20021;-74
2022/11/22 01:55:31;;;;;;;11.13;2.10;;;12.80;92.10;;;;;;5072550;28;20534;-74
2022/11/22 01:57:57;;;;;;;10.35;2.30;;;12.80;92.20;;;;;;5074722;28;20021;-74
2022/11/22 02:00:23;;;;;;;14.75;2.65;;;12.70;92.20;;;;;;5041386;28;20041;-73
2022/11/22 02:02:54;;;;;;;13.63;2.55;;;12.60;92.30;;;;;;5035744;28;20486;-74
2022/11/22 02:05:24;;;;;;;9.88;2.00;;;12.50;92.40;;;;;;5032747;28;20034;-74
2022/11/22 02:07:59;;;;;;;9.48;2.28;;;12.70;92.20;;;;;;5036186;28;20075;-74
2022/11/22 02:10:28;;;;;;;11.98;2.55;;;12.70;92.30;;;;;;5035911;28;20018;-73
2022/11/22 02:12:56;;;;;;;9.35;2.05;;;12.60;92.10;;;;;;5035816;28;20017;-74
2022/11/22 02:15:22;;;;;;;7.43;1.98;;;12.70;92.20;;;;;;5034529;28;20037;-74
2022/11/22 02:17:48;;;;;;;9.40;2.00;;;12.60;92.10;;;;;;5035880;28;20029;-74
2022/11/22 02:20:16;;;;;;;12.07;2.67;;;12.60;92.10;;;;;;5035541;28;20026;-74
2022/11/22 02:23:23;;;;;;;12.20;2.05;;;12.60;92.10;;;;;;5035811;28;20033;-74
2022/11/22 02:25:56;;;;;;;9.68;2.05;;;12.70;92.10;;;;;;5024968;28;20030;-74
2022/11/22 02:28:23;;;;;;;9.60;2.53;;;12.60;91.90;;;;;;5036032;28;20021;-73
2022/11/22 02:30:49;;;;;;;12.25;2.25;;;12.50;92.00;;;;;;5035921;28;20030;-71
2022/11/22 02:33:14;;;;;;;13.43;2.40;;;12.50;92.10;;;;;;5035566;28;20044;-71
2022/11/22 02:35:43;;;;;;;12.00;2.38;;;12.40;92.10;;;;;;5035214;28;20052;-71
2022/11/22 02:38:12;;;;;;;17.67;2.95;;;12.50;92.00;;;;;;5034233;28;20040;-70
2022/11/22 02:40:50;;;;;;;10.35;1.73;;;12.50;91.90;;;;;;5035456;28;20034;-73
2022/11/22 02:43:43;;;;;;;14.30;2.35;;;12.40;91.90;;;;;;5035101;28;20072;-73
2022/11/22 02:46:11;;;;;;;8.48;2.17;;;12.30;92.20;;;;;;5034491;28;20067;-71
2022/11/22 02:48:43;;;;;;;13.95;2.67;;;12.30;92.10;;;;;;5035226;28;20034;-73
2022/11/22 02:51:10;;;;;;;12.85;2.20;;;12.30;92.20;;;;;;5035321;28;20029;-73
2022/11/22 02:53:36;;;;;;;12.55;2.45;;;12.30;92.00;;;;;;5033807;28;20026;-72
2022/11/22 02:56:01;;;;;;;15.93;2.65;;;12.30;92.00;;;;;;5035383;28;20028;-72
2022/11/22 02:58:27;;;;;;;11.25;2.50;;;12.20;92.20;;;;;;5035264;28;20527;-73
2022/11/22 03:00:53;;;;;;;17.55;2.70;;;12.20;92.20;;;;;;5033986;28;20034;-73
2022/11/22 03:03:18;;;;;;;12.38;2.22;;;12.20;92.10;;;;;;5034273;28;20494;-74
2022/11/22 03:05:44;;;;;;;11.13;2.58;;;12.20;92.10;;;;;;5035144;28;20030;-72
2022/11/22 03:08:09;;;;;;;11.52;2.53;;;12.10;92.10;;;;;;5033778;28;20091;-71
2022/11/22 03:10:35;;;;;;;10.20;2.25;;;12.10;92.10;;;;;;5035028;28;20087;-73
2022/11/22 03:13:01;;;;;;;6.68;2.08;;;12.10;92.20;;;;;;5034625;28;20040;-71
2022/11/22 03:15:26;;;;;;;9.52;2.20;;;12.00;92.20;;;;;;5034757;28;20033;-71
2022/11/22 03:18:04;;;;;;;10.13;2.05;;;12.10;92.10;;;;;;5034445;28;20029;-74
2022/11/22 03:20:31;;;;;;;9.02;1.88;;;12.00;92.20;;;;;;5034534;28;20029;-71
2022/11/22 03:22:59;;;;;;;10.60;1.80;;;12.00;92.20;;;;;;5034514;28;20025;-71
2022/11/22 03:25:25;;;;;;;7.43;1.95;;;11.90;92.30;;;;;;5034823;28;20025;-73
2022/11/22 03:27:50;;;;;;;7.82;1.35;;;11.80;92.40;;;;;;5034443;28;20104;-71
2022/11/22 03:30:16;;;;;;;12.07;2.25;;;11.90;92.30;;;;;;5034477;28;20036;-71
2022/11/22 03:32:42;;;;;;;9.90;2.08;;;11.80;92.40;;;;;;5034096;28;20484;-71
2022/11/22 03:35:08;;;;;;;9.75;2.67;;;11.80;92.40;;;;;;5034557;28;20040;-71
2022/11/22 03:37:33;;;;;;;6.28;1.50;;;11.90;92.30;;;;;;5034538;28;20543;-74
2022/11/22 03:39:59;;;;;;;5.97;1.80;;;11.80;92.20;;;;;;5034305;28;20030;-71
2022/11/22 03:42:24;;;;;;;8.93;1.65;;;11.90;92.30;;;;;;5034362;28;20029;-72
2022/11/22 03:44:50;;;;;;;7.97;1.77;;;11.90;92.10;;;;;;5034038;28;20030;-71
2022/11/22 03:47:15;;;;;;;9.38;1.88;;;11.90;92.10;;;;;;5033890;28;20037;-71
2022/11/22 03:49:41;;;;;;;8.38;1.65;;;11.90;92.10;;;;;;5034139;28;20040;-71
2022/11/22 03:52:07;;;;;;;12.10;2.03;;;11.80;92.20;;;;;;5034132;28;20022;-71
2022/11/22 03:54:32;;;;;;;7.80;2.08;;;11.80;92.30;;;;;;5034135;28;20104;-71
2022/11/22 03:56:58;;;;;;;9.23;1.77;;;11.80;92.30;;;;;;5033875;28;20018;-73
2022/11/22 03:59:24;;;;;;;8.05;1.63;;;11.70;92.40;;;;;;5033839;28;20478;-71
2022/11/22 04:01:50;;;;;;;5.18;1.67;;;11.70;92.30;;;;;;5033605;28;20029;-71
2022/11/22 04:04:15;;;;;;;7.63;1.60;;;11.80;92.30;;;;;;5032402;28;20501;-72
2022/11/22 04:06:41;;;;;;;7.22;1.40;;;11.70;92.40;;;;;;5033963;28;20394;-73
2022/11/22 04:09:06;;;;;;;6.97;1.50;;;11.70;92.40;;;;;;5033771;28;20386;-72
2022/11/22 04:11:32;;;;;;;8.93;1.80;;;11.80;92.40;;;;;;5033645;28;20026;-73
2022/11/22 04:16:42;;;;;;;9.00;1.95;;;11.70;92.40;;;;;;5033621;28;20052;-73
2022/11/22 04:19:07;;;;;;;9.50;1.45;;;11.60;92.50;;;;;;5033294;28;20382;-71
2022/11/22 04:21:33;;;;;;;12.27;1.67;;;11.70;92.70;;;;;;5033582;28;20048;-71
2022/11/22 04:26:53;;;;;;;6.53;1.65;;;11.70;92.60;;;;;;5033792;28;20517;-71
2022/11/22 04:29:19;;;;;;;10.20;1.85;;;11.70;92.50;;;;;;5033488;28;20140;-70
2022/11/22 04:34:31;;;;;;;10.57;1.75;;;11.80;92.40;;;;;;5033579;28;20059;-71
2022/11/22 04:36:57;;;;;;;10.57;2.05;;;11.90;92.20;;;;;;5033357;28;20478;-71
2022/11/22 04:39:22;;;;;;;8.10;1.73;;;11.90;92.20;;;;;;5033183;28;20510;-72
2022/11/22 04:44:39;;;;;;;6.35;1.92;;;11.80;92.30;;;;;;5033005;28;20078;-72
2022/11/22 04:44:41;;;;;;;8.70;2.15;;;11.90;92.30;;;;;;5033046;28;20025;-73
2022/11/22 04:53:07;;;;;;;8.20;1.58;;;11.80;92.20;;;;;;4991605;28;20577;-73
2022/11/22 04:55:33;;;;;;;8.20;1.60;;;11.80;92.30;;;;;;5024380;28;20116;-72
2022/11/22 04:57:59;;;;;;;7.05;1.80;;;12.00;92.20;;;;;;5033009;28;20029;-72
2022/11/22 05:00:26;;;;;;;7.20;2.00;;;11.90;92.10;;;;;;5032703;28;20029;-73
2022/11/22 05:02:52;;;;;;;7.57;1.90;;;11.90;92.10;;;;;;5032874;28;20567;-73
2022/11/22 05:05:17;;;;;;;11.98;2.45;;;11.70;92.30;;;;;;5031628;28;20061;-72
2022/11/22 05:07:43;;;;;;;8.50;1.88;;;11.80;92.30;;;;;;5033195;28;20087;-71
2022/11/22 05:10:09;;;;;;;6.10;1.70;;;11.80;92.30;;;;;;5032965;28;20474;-71
2022/11/22 05:12:35;;;;;;;8.90;1.60;;;11.70;92.30;;;;;;5032923;28;20471;-71
2022/11/22 05:15:00;;;;;;;6.55;1.40;;;11.70;92.20;;;;;;5031003;28;20032;-72
2022/11/22 05:17:26;;;;;;;7.22;1.63;;;11.70;92.20;;;;;;5031690;28;20391;-73
2022/11/22 05:19:51;;;;;;;7.75;1.67;;;11.60;92.40;;;;;;5033112;28;20352;-71
2022/11/22 05:23:52;;;;;;;4.75;1.40;;;11.60;92.40;;;;;;5032697;28;20501;-73
2022/11/22 05:25:03;;;;;;;7.72;1.52;;;11.70;92.40;;;;;;5032459;28;20483;-72
2022/11/22 05:27:28;;;;;;;11.93;2.05;;;11.60;92.50;;;;;;5033045;28;20022;-73
2022/11/22 05:29:54;;;;;;;9.88;1.92;;;11.60;92.60;;;;;;5032412;28;20425;-73
2022/11/22 05:32:19;;;;;;;9.30;2.15;;;11.60;92.80;;;;;;5036039;28;20037;-74
2022/11/22 05:34:45;;;;;;;7.55;1.80;;;11.60;92.60;;;;;;5036883;28;20021;-72
2022/11/22 05:37:10;;;;;;;10.07;2.30;;;11.50;92.60;;;;;;5035318;28;20032;-72
2022/11/22 05:39:36;;;;;;;10.18;1.65;;;11.60;92.60;;;;;;5036733;28;20021;-73
2022/11/22 05:42:04;;;;;;;7.38;1.42;;;11.60;92.60;;;;;;5035320;28;20375;-73
2022/11/22 05:44:30;;;;;;;7.20;1.65;;;11.60;92.60;;;;;;5036795;28;20040;-73
2022/11/22 05:46:55;;;;;;;8.38;2.22;;;11.60;92.50;;;;;;5036788;28;20417;-72
2022/11/22 05:49:21;;;;;;;6.43;1.83;;;11.60;92.70;;;;;;5036590;28;20485;-72
2022/11/22 05:51:47;;;;;;;4.30;1.83;;;11.60;92.50;;;;;;5035412;28;20120;-73
2022/11/22 05:54:12;;;;;;;8.25;1.77;;;11.60;92.70;;;;;;5036451;28;20028;-74
2022/11/22 05:56:38;;;;;;;7.95;1.73;;;11.60;92.60;;;;;;5036304;28;20121;-72
2022/11/22 05:59:03;;;;;;;6.93;1.70;;;11.70;92.50;;;;;;5036014;28;20442;-72
2022/11/22 06:01:29;;;;;;;10.00;2.42;;;11.70;92.60;;;;;;5036683;28;20460;-72
2022/11/22 06:03:54;;;;;;;8.60;1.52;;;11.70;92.60;;;;;;5039900;28;20490;-74
2022/11/22 06:06:20;;;;;;;7.82;1.95;;;11.70;92.50;;;;;;5050238;28;20539;-72
2022/11/22 06:08:47;;;;;;;6.28;1.42;;;11.70;92.60;;;;;;5049753;28;20445;-71
2022/11/22 06:11:17;;;;;;;4.40;1.15;;;11.70;92.60;;;;;;5048360;28;20493;-73
2022/11/22 06:13:44;;;;;;;6.28;1.85;;;11.80;92.60;;;;;;5056885;28;20020;-70
2022/11/22 06:16:10;;;;;;;8.98;2.13;;;11.80;92.40;;;;;;5052815;28;20123;-72
2022/11/22 06:20:47;;;;;;;10.65;2.03;;;11.80;90.30;;;;;;5087403;28;20401;-77
2022/11/22 06:23:12;;;;;;;4.95;1.90;;;12.10;91.90;;;;;;5090234;28;20110;-74
2022/11/22 06:25:38;;;;;;;8.35;2.10;;;11.90;92.30;;;;;;5080105;28;20128;-76
2022/11/22 06:28:03;;;;;;;6.97;2.20;;;11.70;92.50;;;;;;5092698;28;20016;-77
2022/11/22 06:30:29;;;;;;;9.80;2.42;;;11.60;92.60;;;;;;5092396;28;20422;-76
2022/11/22 06:32:56;;;;;;;10.20;1.92;;;11.50;92.70;;;;;;5081720;28;20029;-76
2022/11/22 06:35:22;;;;;;;10.68;2.13;;;11.50;92.90;;;;;;5100796;28;20077;-76
2022/11/22 06:37:48;;;;;;;6.38;1.98;;;11.50;92.80;;;;;;5108634;28;20028;-75
2022/11/22 06:40:14;;;;;;;9.52;2.00;;;11.50;92.90;;;;;;5088084;28;20032;-76
2022/11/22 06:42:39;;;;;;;8.13;2.25;;;11.40;93.00;;;;;;5082263;28;20494;-76
2022/11/22 06:45:06;;;;;;;6.05;2.05;;;11.30;93.10;;;;;;5068926;28;20474;-76
2022/11/22 06:47:31;;;;;;;8.63;1.73;;;11.40;93.10;;;;;;5088590;28;20028;-75
2022/11/22 06:49:57;;;;;;;7.35;1.88;;;11.50;93.00;;;;;;5108518;28;20032;-77
2022/11/22 06:52:22;;;;;;;6.22;1.38;;;11.50;92.90;;;;;;5087089;28;20470;-76
2022/11/22 06:54:48;;;;;;;6.50;1.50;;;11.50;93.10;;;;;;5083554;28;20028;-77
2022/11/22 06:57:13;;;;;;;6.28;1.55;;;11.80;94.20;;;;;;5078892;28;20478;-76
2022/11/22 06:59:39;;;;;;;8.73;2.13;;;12.00;94.00;;;;;;5083671;28;20029;-76
2022/11/22 07:02:05;;;;;;;11.30;2.20;;;12.20;93.60;;;;;;5075522;28;20422;-77
2022/11/22 07:04:31;;;;;;;9.93;2.53;;;12.30;93.20;;;;;;5092587;28;20036;-76
2022/11/22 07:06:56;;;;;;;6.53;2.03;;;12.10;92.80;;;;;;5098054;28;20032;-77
2022/11/22 07:09:22;;;;;;;11.35;3.33;;;12.10;93.00;;;;;;5084958;28;20500;-77
2022/11/22 07:11:47;;;;;;;10.68;2.88;;;12.00;93.20;;;;;;5078869;28;20074;-78
2022/11/22 07:14:13;;;;;;;8.85;2.85;;;11.80;92.90;;;;;;5070295;28;20044;-77
2022/11/22 07:16:38;;;;;;;7.22;2.00;;;11.90;92.90;;;;;;5079698;28;20021;-77
2022/11/22 07:19:05;;;;;;;9.32;2.28;;;11.80;93.10;;;;;;5068633;28;20048;-77
2022/11/22 07:21:31;;;;;;;8.95;1.98;;;12.20;93.90;;;;;;5068854;28;20021;-77
2022/11/22 07:23:56;;;;;;;11.80;2.75;;;12.20;93.20;;;;;;5068734;28;20019;-78
2022/11/22 07:26:24;;;;;;;11.27;2.00;;;12.20;92.90;;;;;;5067366;28;20044;-78
2022/11/22 07:28:50;;;;;;;8.02;1.85;;;12.20;92.90;;;;;;5068236;28;20021;-77
2022/11/22 07:31:17;;;;;;;8.93;1.88;;;12.20;93.20;;;;;;5060102;28;20085;-78
2022/11/22 07:33:43;;;;;;;8.57;2.05;;;12.20;93.20;;;;;;5054185;28;20033;-78
2022/11/22 07:36:17;;;;;;;4.70;1.70;;;12.10;93.00;;;;;;5055659;28;20096;-77
2022/11/22 07:38:43;;;;;;;6.93;2.03;;;12.20;93.20;;;;;;5053561;28;20382;-78
2022/11/22 07:41:09;;;;;;;8.02;1.70;;;12.10;93.10;;;;;;5055343;28;20029;-78
2022/11/22 07:43:35;;;;;;;8.80;1.95;;;12.20;93.30;;;;;;5054004;28;20032;-78
2022/11/22 07:46:14;;;;;;;8.15;2.17;;;12.10;93.10;;;;;;5055319;28;20025;-77
2022/11/22 07:48:40;;;;;;;4.68;2.28;;;12.10;93.20;;;;;;5055139;28;20519;-78
2022/11/22 07:51:06;;;;;;;9.02;2.70;;;12.20;93.10;;;;;;5055464;28;20017;-78
2022/11/22 07:53:33;;;;;;;7.68;2.92;;;12.10;93.10;;;;;;5053662;28;20032;-76
2022/11/22 07:56:05;;;;;;;6.75;2.20;;;12.10;93.20;;;;;;5055454;28;20029;-78
2022/11/22 07:58:31;;;;;;;7.15;1.83;;;12.10;93.40;;;;;;5054604;28;20393;-77
2022/11/22 08:00:57;;;;;;;7.88;2.90;;;12.30;93.50;;;;;;5055263;28;20024;-78
2022/11/22 08:03:22;;;;;;;8.27;3.00;;;12.20;93.30;;;;;;5054931;28;20021;-76
2022/11/22 08:05:48;;;;;;;6.70;2.50;;;12.20;93.20;;;;;;5055071;28;20029;-77
2022/11/22 08:08:13;;;;;;;8.40;2.20;;;12.10;93.20;;;;;;5054531;28;20052;-79
2022/11/22 08:10:39;;;;;;;3.80;1.75;;;12.20;93.20;;;;;;5055087;28;20079;-76
2022/11/22 08:13:05;;;;;;;8.18;1.83;;;12.10;93.20;;;;;;5055285;28;20021;-79
2022/11/22 08:15:31;;;;;;;7.93;1.55;;;12.20;93.30;;;;;;5054827;28;20516;-77
2022/11/22 08:17:58;;;;;;;5.25;1.73;;;12.20;93.50;;;;;;5055365;28;20052;-76
2022/11/22 08:20:23;;;;;;;4.47;2.00;;;12.20;93.30;;;;;;5053178;28;20095;-75
2022/11/22 08:22:49;;;;;;;6.72;1.52;;;12.20;93.70;;;;;;5054745;28;20029;-78
2022/11/22 08:25:14;;;;;;;7.78;1.90;;;12.30;93.70;;;;;;5054574;28;20487;-77
2022/11/22 08:27:42;;;;;;;6.97;2.60;;;12.20;93.60;;;;;;5053398;28;20025;-76
2022/11/22 08:30:09;;;;;;;4.25;1.60;;;12.30;93.20;;;;;;5054541;28;20071;-76
2022/11/22 08:32:35;;;;;;;9.70;2.25;;;12.30;93.40;;;;;;5053257;28;20028;-76
2022/11/22 08:35:00;;;;;;;8.15;1.90;;;12.30;93.30;;;;;;5053140;28;20374;-76
2022/11/22 08:37:26;;;;;;;5.65;1.35;;;12.30;93.30;;;;;;5052755;28;20036;-76
2022/11/22 08:39:51;;;;;;;8.25;2.40;;;12.20;93.20;;;;;;5053169;28;20032;-76
2022/11/22 08:42:17;;;;;;;5.68;2.10;;;12.20;93.30;;;;;;5053371;28;20025;-76
2022/11/22 08:44:43;;;;;;;9.05;3.13;;;12.20;93.30;;;;;;5054346;28;20025;-77
2022/11/22 08:47:08;;;;;;;6.72;2.35;;;12.10;93.40;;;;;;5054314;28;20496;-76
2022/11/22 08:49:34;;;;;;;6.07;2.00;;;12.20;93.50;;;;;;5053930;28;20033;-76
2022/11/22 08:51:59;;;;;;;4.63;1.75;;;12.30;93.70;;;;;;5054091;28;20474;-78
2022/11/22 08:54:25;;;;;;;8.55;2.00;;;12.10;93.50;;;;;;5054163;28;20032;-78
2022/11/22 08:56:50;;;;;;;5.47;2.00;;;12.20;93.50;;;;;;5054404;28;20028;-77
2022/11/22 08:59:16;;;;;;;7.30;2.00;;;12.20;93.60;;;;;;5053949;28;20040;-77
2022/11/22 09:01:41;;;;;;;6.80;1.90;;;12.10;93.50;;;;;;5054031;28;20017;-76
2022/11/22 09:04:07;;;;;;;7.80;1.40;;;12.20;93.40;;;;;;5053848;28;20100;-77
2022/11/22 09:06:32;;;;;;;8.88;2.20;;;12.20;93.40;;;;;;5053587;28;20032;-76
2022/11/22 09:08:58;;;;;;;7.07;1.73;;;12.30;93.60;;;;;;5053915;28;20033;-77
2022/11/22 09:11:23;;;;;;;4.93;1.88;;;12.30;93.60;;;;;;5053482;28;20036;-77
2022/11/22 09:13:49;;;;;;;6.20;1.95;;;12.30;93.70;;;;;;5053776;28;20405;-76
2022/11/22 09:16:19;;;;;;;4.00;1.73;;;12.20;93.60;;;;;;5053678;28;20025;-79
2022/11/22 09:18:45;;;;;;;4.93;1.50;;;12.20;93.80;;;;;;5053541;28;20090;-77
2022/11/22 09:21:14;;;;;;;5.00;1.83;;;12.30;93.80;;;;;;5053141;28;20108;-77
2022/11/22 09:23:42;;;;;;;4.43;1.80;;;12.30;93.90;;;;;;5053479;28;20024;-77
2022/11/22 09:26:11;;;;;;;6.72;1.95;;;12.40;94.00;;;;;;5053587;28;20048;-77
2022/11/22 09:28:36;;;;;;;6.32;1.77;;;12.40;93.70;;;;;;5053515;28;20029;-76
2022/11/22 09:31:10;;;;;;;5.55;1.63;;;12.30;93.50;;;;;;5053295;28;20025;-77
2022/11/22 09:33:38;;;;;;;6.43;1.70;;;12.20;93.60;;;;;;5053325;28;20029;-77
2022/11/22 09:36:09;;;;;;;8.80;2.35;;;12.30;93.50;;;;;;5051759;28;20478;-78
2022/11/22 09:38:35;;;;;;;5.45;1.63;;;12.30;93.60;;;;;;5053254;28;20028;-78
2022/11/22 09:41:05;;;;;;;8.85;1.95;;;12.30;93.80;;;;;;5053217;28;20029;-78
2022/11/22 09:44:02;;;;;;;4.18;1.50;;;12.40;93.80;;;;;;5051896;28;20033;-78
2022/11/22 09:46:50;;;;;;;5.43;1.60;;;12.40;93.80;;;;;;5052916;28;20028;-78
2022/11/22 09:49:25;;;;;;;4.70;1.85;;;12.50;93.90;;;;;;5052914;28;20112;-78
2022/11/22 09:52:16;;;;;;;7.18;1.88;;;12.50;93.80;;;;;;5053034;28;20071;-78
2022/11/22 09:54:50;;;;;;;5.13;1.45;;;12.50;93.80;;;;;;5061007;28;20029;-78
2022/11/22 09:57:25;;;;;;;5.40;1.73;;;12.60;93.90;;;;;;5053133;28;20029;-78
2022/11/22 10:00:01;;;;;;;7.03;1.60;;;12.60;93.80;;;;;;5051818;28;20037;-77
2022/11/22 10:02:40;;;;;;;5.07;1.95;;;12.50;93.80;;;;;;5053595;28;20029;-78
2022/11/22 10:05:23;;;;;;;4.28;1.33;;;12.60;93.80;;;;;;5053240;28;20385;-77
2022/11/22 10:08:27;;;;;;;7.03;1.88;;;12.60;93.80;;;;;;5053067;28;20017;-77
2022/11/22 10:10:56;;;;;;;5.70;1.80;;;12.50;93.70;;;;;;5052099;28;20029;-76
2022/11/22 10:13:29;;;;;;;5.28;1.83;;;12.40;93.60;;;;;;5053226;28;20021;-76
2022/11/22 10:16:42;;;;;;;4.88;1.98;;;12.50;93.70;;;;;;5052556;28;20025;-76
2022/11/22 10:19:17;;;;;;;5.53;1.55;;;12.40;93.70;;;;;;5067534;28;20045;-76
2022/11/22 10:21:46;;;;;;;5.03;1.30;;;12.50;93.80;;;;;;5052609;28;20036;-76
2022/11/22 10:24:15;;;;;;;4.00;1.15;;;12.50;93.80;;;;;;5051573;28;20420;-77
2022/11/22 10:26:41;;;;;;;8.95;1.83;;;12.60;94.00;;;;;;5052794;28;20055;-76
2022/11/22 10:29:43;;;;;;;3.33;1.17;;;12.50;93.80;;;;;;5052527;28;20071;-76
2022/11/22 10:32:32;;;;;;;6.30;3.70;;;12.60;94.00;;;;;;5052483;28;20024;-75
2022/11/22 10:35:13;;;;;;;13.70;6.13;;;12.50;93.80;;;;;;5052501;28;20100;-75
2022/11/22 10:38:02;;;;;;;50.83;19.23;;;12.60;93.80;;;;;;5052258;28;20596;-75
2022/11/22 10:40:45;;;;;;;22.33;9.63;;;12.60;93.80;;;;;;5052300;28;20478;-76
2022/11/22 10:43:27;;;;;;;7.07;2.90;;;12.60;93.80;;;;;;5052557;28;20105;-76
2022/11/22 10:45:53;;;;;;;4.63;1.73;;;12.50;93.90;;;;;;5052516;28;20017;-76
2022/11/22 10:48:41;;;;;;;4.20;1.95;;;12.50;94.00;;;;;;5052121;28;20028;-75
2022/11/22 10:51:25;;;;;;;6.85;1.73;;;12.60;93.90;;;;;;5053235;28;20037;-77
2022/11/22 10:54:25;;;;;;;7.72;2.08;;;12.60;93.90;;;;;;5052533;28;20070;-76
2022/11/22 10:57:02;;;;;;;5.68;1.85;;;12.60;94.00;;;;;;5052477;28;20032;-77
2022/11/22 11:00:02;;;;;;;7.65;2.40;;;12.70;93.80;;;;;;5052078;28;20040;-78
2022/11/22 11:02:49;;;;;;;8.20;2.63;;;12.70;93.80;;;;;;5050914;28;20024;-77
2022/11/22 11:05:18;;;;;;;6.57;2.70;;;12.80;93.90;;;;;;5052537;28;20029;-78
2022/11/22 11:07:47;;;;;;;5.95;2.72;;;12.80;94.00;;;;;;5056166;28;20017;-78
2022/11/22 11:10:17;;;;;;;7.28;2.50;;;12.80;94.20;;;;;;5056358;28;20033;-76
2022/11/22 11:12:49;;;;;;;10.73;2.63;;;12.90;93.90;;;;;;5055748;28;20017;-76
2022/11/22 11:15:22;;;;;;;6.78;2.92;;;12.90;93.80;;;;;;5055942;28;20068;-77
2022/11/22 11:17:53;;;;;;;5.25;2.22;;;12.90;93.70;;;;;;5054423;28;20075;-77
2022/11/22 11:20:25;;;;;;;7.05;2.47;;;12.90;93.50;;;;;;5055989;28;20086;-77
2022/11/22 11:22:50;;;;;;;4.37;1.60;;;12.90;93.60;;;;;;5054723;28;20027;-77
2022/11/22 11:25:29;;;;;;;6.35;2.45;;;13.00;93.60;;;;;;5054755;28;20017;-77
2022/11/22 11:27:58;;;;;;;4.80;2.30;;;13.00;93.70;;;;;;5056133;28;20043;-77
2022/11/22 11:30:24;;;;;;;5.18;2.63;;;13.00;93.70;;;;;;5056040;28;20028;-77
2022/11/22 11:32:52;;;;;;;5.40;2.10;;;13.00;93.70;;;;;;5055230;28;20033;-77
2022/11/22 11:35:20;;;;;;;4.20;1.77;;;13.00;93.60;;;;;;5055725;28;20028;-76
2022/11/22 11:37:46;;;;;;;5.30;2.03;;;12.90;93.60;;;;;;5055371;28;20028;-76
2022/11/22 11:40:31;;;;;;;4.93;2.10;;;13.00;93.70;;;;;;5054346;28;20038;-77
2022/11/22 11:43:19;;;;;;;3.90;1.60;;;12.90;93.80;;;;;;5055368;28;20579;-78
2022/11/22 11:45:46;;;;;;;5.60;1.70;;;13.00;93.80;;;;;;5055401;28;20064;-77
2022/11/22 11:48:36;;;;;;;3.67;1.55;;;13.00;93.70;;;;;;5055521;28;20079;-77
2022/11/22 11:51:11;;;;;;;8.57;1.58;;;12.90;94.20;;;;;;5055449;28;20036;-77
2022/11/22 11:53:38;;;;;;;4.78;1.90;;;12.70;93.90;;;;;;5055248;28;20017;-78
2022/11/22 11:56:29;;;;;;;2.95;1.40;;;12.90;94.00;;;;;;5054075;28;20021;-77
2022/11/22 11:58:57;;;;;;;3.53;1.20;;;12.90;94.00;;;;;;5055112;28;20116;-78
2022/11/22 12:01:25;;;;;;;4.03;1.08;;;12.80;93.90;;;;;;5054695;28;20112;-78
2022/11/22 12:04:00;;;;;;;5.18;1.58;;;12.90;94.10;;;;;;5055134;28;20028;-78
2022/11/22 12:06:30;;;;;;;4.57;1.33;;;12.80;94.10;;;;;;5055092;28;20031;-78
2022/11/22 12:08:57;;;;;;;3.45;1.50;;;12.80;94.20;;;;;;5055276;28;20032;-78
2022/11/22 12:11:33;;;;;;;3.92;1.13;;;12.80;94.20;;;;;;5055246;28;20017;-77
2022/11/22 12:14:02;;;;;;;3.00;1.08;;;12.90;94.20;;;;;;5055223;28;20021;-77
2022/11/22 12:16:36;;;;;;;2.78;1.50;;;12.80;94.30;;;;;;5054721;28;20025;-76
2022/11/22 12:19:29;;;;;;;3.20;1.10;;;12.80;94.20;;;;;;5054695;28;20505;-76
2022/11/22 12:21:55;;;;;;;3.67;1.35;;;12.80;94.30;;;;;;5054613;28;20053;-76
2022/11/22 12:24:52;;;;;;;3.70;1.50;;;12.90;94.20;;;;;;5055025;28;20543;-76
2022/11/22 12:27:18;;;;;;;3.22;1.35;;;12.90;94.30;;;;;;5054776;28;20501;-76
2022/11/22 12:29:44;;;;;;;6.50;2.65;;;12.90;94.20;;;;;;5054393;28;20029;-75
2022/11/22 12:32:18;;;;;;;7.10;4.28;;;12.90;94.10;;;;;;5054532;28;20017;-75
2022/11/22 12:35:13;;;;;;;5.55;2.08;;;12.90;94.20;;;;;;5054435;28;20056;-75
2022/11/22 12:37:48;;;;;;;3.40;1.75;;;12.90;94.30;;;;;;5053395;28;20086;-76
2022/11/22 12:40:41;;;;;;;3.00;1.30;;;12.90;94.30;;;;;;5053124;28;20083;-75
2022/11/22 12:43:25;;;;;;;1.88;1.15;;;13.00;94.30;;;;;;5054438;28;20104;-76
2022/11/22 12:46:43;;;;;;;2.75;1.20;;;12.90;94.20;;;;;;5054276;28;20025;-78
2022/11/22 12:49:16;;;;;;;3.45;1.38;;;13.00;94.30;;;;;;5060663;28;20048;-77
2022/11/22 12:52:12;;;;;;;3.35;1.35;;;13.00;94.30;;;;;;5054285;28;20044;-77
2022/11/22 12:55:01;;;;;;;1.50;1.00;;;13.00;94.40;;;;;;5052946;28;20060;-76
2022/11/22 12:57:41;;;;;;;3.20;1.17;;;13.00;94.30;;;;;;5054056;28;20050;-77
2022/11/22 13:00:16;;;;;;;3.03;1.00;;;13.10;94.20;;;;;;5054118;28;20389;-77
2022/11/22 13:02:56;;;;;;;3.35;1.15;;;13.10;94.20;;;;;;5053957;28;20054;-77
2022/11/22 13:05:29;;;;;;;2.40;0.85;;;13.10;94.20;;;;;;5052373;28;20470;-76
2022/11/22 13:07:54;;;;;;;2.65;1.02;;;13.10;94.20;;;;;;5054216;28;20052;-77
2022/11/22 13:11:08;;;;;;;1.90;0.73;;;13.10;94.10;;;;;;5053815;28;20025;-77
2022/11/22 13:14:01;;;;;;;2.97;0.98;;;13.20;94.20;;;;;;5057317;28;20530;-76